KAC201 OKKK-OPLA
Flight info
| Callsign | KAC201 |
|---|---|
| Flight time | 3h 5m |
| Altitude | 35000 |
| Route | SESRU G669 IVERA A788 SYZ G452 ZDN N319 DERBO G452 KALAT J133 PARLO J166 HILAL J116 MT J138 BIBUN |
| Aircraft | B77W/H-SDE1E2E3FGHIJ2J3J4J5M1RWXY/LB1D1 |
Departure
| Time | 2026-05-09 13:47 |
|---|---|
| Airport | Kuwait International Airport (OKKK) |
Arrival
| Time | 2026-05-09 16:52 |
|---|---|
| Airport | Allama Iqbal International Airport (OPLA) |
| Time | Latitude | Longitude | Altitude | Speed | Heading |
|---|---|---|---|---|---|
| 2026-05-09 13:16 | 29.24875 | 47.96077 | 172 ft | 0 kts | 66° |
| 2026-05-09 13:26 | 29.24873 | 47.96072 | 171 ft | 4 kts | 66° |
| 2026-05-09 13:27 | 29.24864 | 47.96043 | 171 ft | 4 kts | 74° |
| 2026-05-09 13:27 | 29.24858 | 47.96013 | 170 ft | 4 kts | 85° |
| 2026-05-09 13:27 | 29.24859 | 47.95983 | 170 ft | 4 kts | 111° |
| 2026-05-09 13:27 | 29.24870 | 47.95966 | 169 ft | 1 kts | 155° |
| 2026-05-09 13:30 | 29.24867 | 47.95968 | 169 ft | 3 kts | 155° |
| 2026-05-09 13:30 | 29.24805 | 47.96000 | 169 ft | 14 kts | 155° |
| 2026-05-09 13:30 | 29.24717 | 47.96046 | 169 ft | 14 kts | 156° |
| 2026-05-09 13:30 | 29.24629 | 47.96093 | 169 ft | 14 kts | 155° |
| 2026-05-09 13:31 | 29.24541 | 47.96139 | 169 ft | 14 kts | 156° |
| 2026-05-09 13:31 | 29.24454 | 47.96187 | 169 ft | 14 kts | 153° |
| 2026-05-09 13:31 | 29.24368 | 47.96238 | 169 ft | 14 kts | 153° |
| 2026-05-09 13:31 | 29.24279 | 47.96282 | 169 ft | 14 kts | 159° |
| 2026-05-09 13:32 | 29.24190 | 47.96326 | 169 ft | 14 kts | 156° |
| 2026-05-09 13:32 | 29.24016 | 47.96420 | 168 ft | 14 kts | 154° |
| 2026-05-09 13:32 | 29.23928 | 47.96467 | 169 ft | 14 kts | 154° |
| 2026-05-09 13:33 | 29.23839 | 47.96511 | 169 ft | 14 kts | 158° |
| 2026-05-09 13:33 | 29.23750 | 47.96556 | 169 ft | 14 kts | 152° |
| 2026-05-09 13:33 | 29.23663 | 47.96608 | 169 ft | 15 kts | 153° |
| 2026-05-09 13:33 | 29.23564 | 47.96662 | 168 ft | 17 kts | 155° |
| 2026-05-09 13:34 | 29.23452 | 47.96721 | 168 ft | 18 kts | 154° |
| 2026-05-09 13:34 | 29.23338 | 47.96782 | 169 ft | 18 kts | 155° |
| 2026-05-09 13:34 | 29.23225 | 47.96841 | 169 ft | 11 kts | 156° |
| 2026-05-09 13:34 | 29.23153 | 47.96831 | 170 ft | 11 kts | 220° |
| 2026-05-09 13:35 | 29.23112 | 47.96752 | 169 ft | 12 kts | 243° |
| 2026-05-09 13:35 | 29.23074 | 47.96660 | 167 ft | 13 kts | 246° |
| 2026-05-09 13:35 | 29.23037 | 47.96566 | 167 ft | 13 kts | 244° |
| 2026-05-09 13:35 | 29.22986 | 47.96487 | 167 ft | 13 kts | 202° |
| 2026-05-09 13:36 | 29.22895 | 47.96511 | 166 ft | 15 kts | 156° |
| 2026-05-09 13:36 | 29.22788 | 47.96567 | 165 ft | 18 kts | 155° |
| 2026-05-09 13:36 | 29.22683 | 47.96530 | 165 ft | 18 kts | 242° |
| 2026-05-09 13:36 | 29.22628 | 47.96397 | 165 ft | 18 kts | 245° |
| 2026-05-09 13:37 | 29.22575 | 47.96263 | 165 ft | 18 kts | 245° |
| 2026-05-09 13:37 | 29.22521 | 47.96130 | 165 ft | 18 kts | 244° |
| 2026-05-09 13:37 | 29.22465 | 47.95998 | 168 ft | 18 kts | 244° |
| 2026-05-09 13:37 | 29.22409 | 47.95866 | 165 ft | 18 kts | 244° |
| 2026-05-09 13:38 | 29.22355 | 47.95733 | 165 ft | 18 kts | 246° |
| 2026-05-09 13:38 | 29.22301 | 47.95600 | 165 ft | 18 kts | 245° |
| 2026-05-09 13:38 | 29.22246 | 47.95467 | 165 ft | 18 kts | 245° |
| 2026-05-09 13:38 | 29.22192 | 47.95334 | 165 ft | 18 kts | 245° |
| 2026-05-09 13:39 | 29.22137 | 47.95202 | 165 ft | 18 kts | 244° |
| 2026-05-09 13:39 | 29.22081 | 47.95070 | 166 ft | 18 kts | 245° |
| 2026-05-09 13:39 | 29.22027 | 47.94937 | 165 ft | 18 kts | 239° |
| 2026-05-09 13:39 | 29.21913 | 47.94924 | 167 ft | 18 kts | 156° |
| 2026-05-09 13:40 | 29.21797 | 47.94986 | 171 ft | 18 kts | 154° |
| 2026-05-09 13:40 | 29.21680 | 47.95046 | 172 ft | 18 kts | 155° |
| 2026-05-09 13:40 | 29.21566 | 47.95114 | 172 ft | 18 kts | 152° |
| 2026-05-09 13:40 | 29.21448 | 47.95171 | 171 ft | 18 kts | 158° |
| 2026-05-09 13:41 | 29.21331 | 47.95232 | 169 ft | 18 kts | 154° |
| 2026-05-09 13:41 | 29.21215 | 47.95296 | 171 ft | 18 kts | 154° |
| 2026-05-09 13:41 | 29.21099 | 47.95358 | 171 ft | 18 kts | 155° |
| 2026-05-09 13:41 | 29.20982 | 47.95419 | 174 ft | 18 kts | 155° |
| 2026-05-09 13:42 | 29.20866 | 47.95482 | 176 ft | 18 kts | 153° |
| 2026-05-09 13:42 | 29.20752 | 47.95547 | 176 ft | 18 kts | 156° |
| 2026-05-09 13:42 | 29.20631 | 47.95607 | 176 ft | 20 kts | 156° |
| 2026-05-09 13:42 | 29.20485 | 47.95684 | 172 ft | 26 kts | 155° |
| 2026-05-09 13:43 | 29.20321 | 47.95769 | 171 ft | 26 kts | 154° |
| 2026-05-09 13:43 | 29.20158 | 47.95855 | 170 ft | 26 kts | 157° |
| 2026-05-09 13:43 | 29.19996 | 47.95943 | 173 ft | 26 kts | 155° |
| 2026-05-09 13:43 | 29.19833 | 47.96030 | 175 ft | 26 kts | 154° |
| 2026-05-09 13:44 | 29.19671 | 47.96117 | 176 ft | 26 kts | 155° |
| 2026-05-09 13:44 | 29.19508 | 47.96204 | 177 ft | 26 kts | 155° |
| 2026-05-09 13:44 | 29.19350 | 47.96288 | 176 ft | 18 kts | 154° |
| 2026-05-09 13:44 | 29.19247 | 47.96302 | 175 ft | 14 kts | 216° |
| 2026-05-09 13:45 | 29.19229 | 47.96279 | 176 ft | 0 kts | 236° |
| 2026-05-09 13:45 | 29.19217 | 47.96251 | 176 ft | 14 kts | 243° |
| 2026-05-09 13:46 | 29.19223 | 47.96115 | 178 ft | 12 kts | 325° |
| 2026-05-09 13:46 | 29.19340 | 47.96052 | 180 ft | 41 kts | 334° |
| 2026-05-09 13:46 | 29.19915 | 47.95745 | 171 ft | 140 kts | 335° |
| 2026-05-09 13:46 | 29.21038 | 47.95141 | 296 ft | 206 kts | 336° |
| 2026-05-09 13:47 | 29.22395 | 47.94393 | 817 ft | 216 kts | 335° |
| 2026-05-09 13:47 | 29.23738 | 47.93722 | 1100 ft | 216 kts | 336° |
| 2026-05-09 13:47 | 29.25177 | 47.93071 | 1738 ft | 227 kts | 338° |
| 2026-05-09 13:47 | 29.26638 | 47.92434 | 2556 ft | 223 kts | 338° |
| 2026-05-09 13:48 | 29.28075 | 47.91788 | 3293 ft | 222 kts | 339° |
| 2026-05-09 13:48 | 29.29581 | 47.91407 | 3816 ft | 230 kts | 3° |
| 2026-05-09 13:48 | 29.31122 | 47.92092 | 4173 ft | 249 kts | 39° |
| 2026-05-09 13:48 | 29.32045 | 47.93735 | 4906 ft | 257 kts | 75° |
| 2026-05-09 13:49 | 29.32156 | 47.95764 | 5650 ft | 253 kts | 86° |
| 2026-05-09 13:49 | 29.32075 | 47.97847 | 5868 ft | 278 kts | 96° |
| 2026-05-09 13:49 | 29.31749 | 48.00080 | 6369 ft | 291 kts | 99° |
| 2026-05-09 13:49 | 29.31343 | 48.02394 | 6909 ft | 300 kts | 99° |
| 2026-05-09 13:50 | 29.30910 | 48.04757 | 7553 ft | 305 kts | 101° |
| 2026-05-09 13:50 | 29.30466 | 48.07159 | 8210 ft | 310 kts | 101° |
| 2026-05-09 13:50 | 29.30017 | 48.09598 | 8880 ft | 315 kts | 102° |
| 2026-05-09 13:50 | 29.29562 | 48.12078 | 9548 ft | 320 kts | 102° |
| 2026-05-09 13:51 | 29.29103 | 48.14593 | 10156 ft | 325 kts | 102° |
| 2026-05-09 13:51 | 29.28629 | 48.17190 | 10491 ft | 344 kts | 102° |
| 2026-05-09 13:51 | 29.28124 | 48.19966 | 10668 ft | 368 kts | 102° |
| 2026-05-09 13:51 | 29.27585 | 48.22927 | 10848 ft | 391 kts | 102° |
| 2026-05-09 13:52 | 29.27020 | 48.26046 | 11228 ft | 406 kts | 102° |
| 2026-05-09 13:52 | 29.26437 | 48.29256 | 11823 ft | 416 kts | 102° |
| 2026-05-09 13:52 | 29.25844 | 48.32525 | 12595 ft | 422 kts | 102° |
| 2026-05-09 13:52 | 29.25244 | 48.35825 | 13440 ft | 426 kts | 102° |
| 2026-05-09 13:53 | 29.24635 | 48.39167 | 14204 ft | 431 kts | 102° |
| 2026-05-09 13:53 | 29.24021 | 48.42530 | 14974 ft | 433 kts | 102° |
| 2026-05-09 13:53 | 29.23402 | 48.45913 | 15828 ft | 434 kts | 102° |
| 2026-05-09 13:53 | 29.22781 | 48.49306 | 16658 ft | 437 kts | 102° |
| 2026-05-09 13:54 | 29.22155 | 48.52719 | 17404 ft | 441 kts | 101° |
| 2026-05-09 13:54 | 29.21521 | 48.56172 | 18138 ft | 445 kts | 101° |
| 2026-05-09 13:54 | 29.20880 | 48.59656 | 18759 ft | 450 kts | 101° |
| 2026-05-09 13:54 | 29.20231 | 48.63182 | 19323 ft | 456 kts | 102° |
| 2026-05-09 13:55 | 29.19572 | 48.66751 | 19874 ft | 462 kts | 102° |
| 2026-05-09 13:55 | 29.18903 | 48.70374 | 20424 ft | 468 kts | 102° |
| 2026-05-09 13:55 | 29.18225 | 48.74037 | 21000 ft | 473 kts | 102° |
| 2026-05-09 13:55 | 29.17540 | 48.77735 | 21574 ft | 478 kts | 102° |
| 2026-05-09 13:56 | 29.16847 | 48.81471 | 22129 ft | 483 kts | 102° |
| 2026-05-09 13:56 | 29.16145 | 48.85248 | 22672 ft | 488 kts | 102° |
| 2026-05-09 13:56 | 29.15443 | 48.89015 | 23174 ft | 493 kts | 102° |
| 2026-05-09 13:56 | 29.14787 | 48.92937 | 23666 ft | 498 kts | 98° |
| 2026-05-09 13:57 | 29.14347 | 48.96828 | 24106 ft | 501 kts | 97° |
| 2026-05-09 13:57 | 29.13949 | 49.00700 | 24574 ft | 505 kts | 96° |
| 2026-05-09 13:57 | 29.13547 | 49.04696 | 25067 ft | 508 kts | 96° |
| 2026-05-09 13:57 | 29.13137 | 49.08722 | 25563 ft | 510 kts | 96° |
| 2026-05-09 13:58 | 29.12715 | 49.12759 | 26031 ft | 514 kts | 97° |
| 2026-05-09 13:58 | 29.12287 | 49.16776 | 26482 ft | 517 kts | 97° |
| 2026-05-09 13:58 | 29.11840 | 49.20922 | 26937 ft | 521 kts | 97° |
| 2026-05-09 13:58 | 29.11392 | 49.25045 | 27373 ft | 524 kts | 97° |
| 2026-05-09 13:59 | 29.10941 | 49.29189 | 27803 ft | 527 kts | 97° |
| 2026-05-09 13:59 | 29.10493 | 49.33302 | 28232 ft | 530 kts | 97° |
| 2026-05-09 13:59 | 29.10035 | 49.37494 | 28636 ft | 533 kts | 97° |
| 2026-05-09 13:59 | 29.09576 | 49.41700 | 29078 ft | 534 kts | 97° |
| 2026-05-09 14:00 | 29.09115 | 49.45923 | 29460 ft | 537 kts | 97° |
| 2026-05-09 14:00 | 29.08987 | 49.47362 | 29576 ft | 538 kts | 95° |
| 2026-05-09 14:00 | 29.09047 | 49.54467 | 30291 ft | 538 kts | 84° |
| 2026-05-09 14:00 | 29.09524 | 49.58697 | 30716 ft | 537 kts | 79° |
| 2026-05-09 14:01 | 29.10368 | 49.62846 | 31133 ft | 536 kts | 74° |
| 2026-05-09 14:01 | 29.11362 | 49.66953 | 31501 ft | 536 kts | 74° |
| 2026-05-09 14:01 | 29.12376 | 49.71063 | 31838 ft | 537 kts | 74° |
| 2026-05-09 14:01 | 29.13376 | 49.75183 | 32201 ft | 538 kts | 75° |
| 2026-05-09 14:02 | 29.14354 | 49.79325 | 32462 ft | 541 kts | 75° |
| 2026-05-09 14:02 | 29.15317 | 49.83488 | 32762 ft | 542 kts | 76° |
| 2026-05-09 14:02 | 29.16275 | 49.87657 | 33116 ft | 542 kts | 76° |
| 2026-05-09 14:02 | 29.17236 | 49.91829 | 33467 ft | 542 kts | 76° |
| 2026-05-09 14:03 | 29.18199 | 49.96001 | 33803 ft | 543 kts | 76° |
| 2026-05-09 14:03 | 29.19149 | 50.00116 | 34060 ft | 544 kts | 77° |
| 2026-05-09 14:03 | 29.20098 | 50.04227 | 34261 ft | 546 kts | 77° |
| 2026-05-09 14:03 | 29.21068 | 50.08437 | 34497 ft | 548 kts | 77° |
| 2026-05-09 14:04 | 29.22037 | 50.12650 | 34744 ft | 549 kts | 77° |
| 2026-05-09 14:04 | 29.23011 | 50.16892 | 34838 ft | 553 kts | 77° |
| 2026-05-09 14:04 | 29.24970 | 50.25440 | 34900 ft | 556 kts | 77° |
| 2026-05-09 14:05 | 29.26785 | 50.34012 | 34908 ft | 551 kts | 83° |
| 2026-05-09 14:05 | 29.27919 | 50.42661 | 34921 ft | 548 kts | 85° |
| 2026-05-09 14:06 | 29.28968 | 50.51321 | 34913 ft | 549 kts | 85° |
| 2026-05-09 14:06 | 29.30056 | 50.60009 | 34912 ft | 556 kts | 85° |
| 2026-05-09 14:07 | 29.31190 | 50.68851 | 34931 ft | 564 kts | 85° |
| 2026-05-09 14:07 | 29.32331 | 50.77739 | 34926 ft | 565 kts | 85° |
| 2026-05-09 14:08 | 29.33465 | 50.86641 | 34919 ft | 564 kts | 85° |
| 2026-05-09 14:08 | 29.34588 | 50.95535 | 34923 ft | 563 kts | 85° |
| 2026-05-09 14:09 | 29.35681 | 51.04248 | 34939 ft | 563 kts | 85° |
| 2026-05-09 14:09 | 29.36781 | 51.13061 | 34951 ft | 562 kts | 85° |
| 2026-05-09 14:10 | 29.38431 | 51.26357 | 34968 ft | 561 kts | 85° |
| 2026-05-09 14:11 | 29.39520 | 51.35220 | 34983 ft | 561 kts | 85° |
| 2026-05-09 14:11 | 29.40579 | 51.44083 | 34996 ft | 559 kts | 86° |
| 2026-05-09 14:12 | 29.41646 | 51.52942 | 35013 ft | 562 kts | 85° |
| 2026-05-09 14:12 | 29.42758 | 51.61837 | 35005 ft | 565 kts | 86° |
| 2026-05-09 14:13 | 29.43836 | 51.70802 | 35017 ft | 569 kts | 86° |
| 2026-05-09 14:15 | 29.47860 | 52.05101 | 35093 ft | 571 kts | 86° |
| 2026-05-09 14:15 | 29.48907 | 52.14146 | 35110 ft | 573 kts | 87° |
| 2026-05-09 14:16 | 29.49949 | 52.23199 | 35128 ft | 571 kts | 87° |
| 2026-05-09 14:16 | 29.50984 | 52.32232 | 35148 ft | 570 kts | 87° |
| 2026-05-09 14:17 | 29.52010 | 52.41258 | 35136 ft | 570 kts | 87° |
| 2026-05-09 14:17 | 29.53007 | 52.50273 | 35142 ft | 568 kts | 87° |
| 2026-05-09 14:18 | 29.54072 | 52.59275 | 35096 ft | 571 kts | 85° |
| 2026-05-09 14:18 | 29.55665 | 52.68253 | 35103 ft | 575 kts | 81° |
| 2026-05-09 14:19 | 29.57416 | 52.77247 | 35110 ft | 579 kts | 81° |
| 2026-05-09 14:19 | 29.59148 | 52.86311 | 35085 ft | 582 kts | 81° |
| 2026-05-09 14:20 | 29.60863 | 52.95408 | 35105 ft | 583 kts | 81° |
| 2026-05-09 14:20 | 29.62521 | 53.04374 | 35071 ft | 585 kts | 82° |
| 2026-05-09 14:21 | 29.65053 | 53.18043 | 35087 ft | 581 kts | 82° |
| 2026-05-09 14:21 | 29.66712 | 53.27055 | 35090 ft | 579 kts | 82° |
| 2026-05-09 14:22 | 29.68369 | 53.36094 | 35097 ft | 577 kts | 82° |
| 2026-05-09 14:22 | 29.70017 | 53.45121 | 35101 ft | 577 kts | 82° |
| 2026-05-09 14:23 | 29.71661 | 53.54160 | 35100 ft | 577 kts | 82° |
| 2026-05-09 14:23 | 29.73297 | 53.63192 | 35099 ft | 577 kts | 82° |
| 2026-05-09 14:24 | 29.74929 | 53.72234 | 35103 ft | 578 kts | 82° |
| 2026-05-09 14:24 | 29.76557 | 53.81286 | 35111 ft | 578 kts | 82° |
| 2026-05-09 14:25 | 29.78181 | 53.90356 | 35111 ft | 579 kts | 82° |
| 2026-05-09 14:25 | 29.79800 | 53.99445 | 35126 ft | 580 kts | 82° |
| 2026-05-09 14:26 | 29.81359 | 54.08263 | 35127 ft | 576 kts | 82° |
| 2026-05-09 14:26 | 29.82970 | 54.17303 | 35099 ft | 576 kts | 82° |
| 2026-05-09 14:27 | 29.84553 | 54.26267 | 35091 ft | 574 kts | 83° |
| 2026-05-09 14:27 | 29.86131 | 54.35269 | 35082 ft | 572 kts | 82° |
| 2026-05-09 14:28 | 29.87697 | 54.44227 | 35082 ft | 569 kts | 82° |
| 2026-05-09 14:28 | 29.89252 | 54.53145 | 35080 ft | 566 kts | 83° |
| 2026-05-09 14:29 | 29.90787 | 54.62031 | 35073 ft | 564 kts | 83° |
| 2026-05-09 14:29 | 29.92307 | 54.70895 | 35073 ft | 563 kts | 83° |
| 2026-05-09 14:30 | 29.93820 | 54.79747 | 35080 ft | 563 kts | 83° |
| 2026-05-09 14:30 | 29.95329 | 54.88603 | 35081 ft | 563 kts | 83° |
| 2026-05-09 14:31 | 29.96835 | 54.97478 | 35087 ft | 564 kts | 83° |
| 2026-05-09 14:31 | 29.98308 | 55.06196 | 35084 ft | 565 kts | 83° |
| 2026-05-09 14:32 | 29.99807 | 55.15101 | 35087 ft | 566 kts | 83° |
| 2026-05-09 14:32 | 30.01300 | 55.24011 | 35091 ft | 567 kts | 83° |
| 2026-05-09 14:33 | 30.02792 | 55.32944 | 35096 ft | 567 kts | 83° |
| 2026-05-09 14:33 | 30.04266 | 55.41820 | 35106 ft | 567 kts | 83° |
| 2026-05-09 14:34 | 30.05729 | 55.50753 | 35115 ft | 566 kts | 83° |
| 2026-05-09 14:34 | 30.07184 | 55.59692 | 35125 ft | 567 kts | 83° |
| 2026-05-09 14:35 | 30.08637 | 55.68639 | 35111 ft | 566 kts | 83° |
| 2026-05-09 14:35 | 30.10082 | 55.77567 | 35122 ft | 566 kts | 84° |
| 2026-05-09 14:36 | 30.11521 | 55.86499 | 35127 ft | 566 kts | 84° |
| 2026-05-09 14:36 | 30.12954 | 55.95434 | 35113 ft | 566 kts | 84° |
| 2026-05-09 14:37 | 30.14354 | 56.04200 | 35105 ft | 565 kts | 84° |
| 2026-05-09 14:37 | 30.15771 | 56.13116 | 35095 ft | 563 kts | 84° |
| 2026-05-09 14:38 | 30.17177 | 56.22001 | 35093 ft | 562 kts | 84° |
| 2026-05-09 14:38 | 30.18576 | 56.30877 | 35101 ft | 561 kts | 84° |
| 2026-05-09 14:39 | 30.19956 | 56.39681 | 35087 ft | 560 kts | 84° |
| 2026-05-09 14:39 | 30.21328 | 56.48546 | 35090 ft | 560 kts | 84° |
| 2026-05-09 14:40 | 30.22693 | 56.57417 | 35083 ft | 560 kts | 84° |
| 2026-05-09 14:40 | 30.24053 | 56.66279 | 35097 ft | 560 kts | 84° |
| 2026-05-09 14:41 | 30.25409 | 56.75147 | 35095 ft | 560 kts | 84° |
| 2026-05-09 14:41 | 30.26760 | 56.84023 | 35119 ft | 560 kts | 84° |
| 2026-05-09 14:42 | 30.27582 | 56.92932 | 35101 ft | 552 kts | 96° |
| 2026-05-09 14:42 | 30.27051 | 57.01540 | 35101 ft | 542 kts | 107° |
| 2026-05-09 14:43 | 30.25493 | 57.10016 | 35103 ft | 538 kts | 110° |
| 2026-05-09 14:43 | 30.23860 | 57.18468 | 35097 ft | 540 kts | 109° |
| 2026-05-09 14:44 | 30.22278 | 57.26966 | 35107 ft | 540 kts | 109° |
| 2026-05-09 14:44 | 30.20728 | 57.35419 | 35098 ft | 541 kts | 109° |
| 2026-05-09 14:45 | 30.19159 | 57.43939 | 35090 ft | 542 kts | 108° |
| 2026-05-09 14:45 | 30.17572 | 57.52416 | 35083 ft | 539 kts | 109° |
| 2026-05-09 14:46 | 30.15988 | 57.60873 | 34990 ft | 542 kts | 109° |
| 2026-05-09 14:46 | 30.14386 | 57.69392 | 35022 ft | 542 kts | 109° |
| 2026-05-09 14:47 | 30.12779 | 57.77895 | 34964 ft | 541 kts | 109° |
| 2026-05-09 14:47 | 30.11172 | 57.86380 | 34928 ft | 540 kts | 109° |
| 2026-05-09 14:48 | 30.09537 | 57.94838 | 34863 ft | 538 kts | 110° |
| 2026-05-09 14:48 | 30.07775 | 58.03047 | 34874 ft | 535 kts | 110° |
| 2026-05-09 14:49 | 30.05944 | 58.11364 | 34846 ft | 534 kts | 110° |
| 2026-05-09 14:49 | 30.04135 | 58.19673 | 34822 ft | 534 kts | 110° |
| 2026-05-09 14:50 | 30.02351 | 58.27927 | 34805 ft | 533 kts | 110° |
| 2026-05-09 14:50 | 30.00553 | 58.36227 | 34811 ft | 533 kts | 110° |
| 2026-05-09 14:51 | 29.98748 | 58.44516 | 34809 ft | 533 kts | 110° |
| 2026-05-09 14:51 | 29.96936 | 58.52811 | 34796 ft | 533 kts | 110° |
| 2026-05-09 14:52 | 29.95122 | 58.61099 | 34812 ft | 533 kts | 110° |
| 2026-05-09 14:52 | 29.93300 | 58.69392 | 34809 ft | 534 kts | 110° |
| 2026-05-09 14:53 | 29.91617 | 58.77738 | 34803 ft | 535 kts | 108° |
| 2026-05-09 14:53 | 29.90064 | 58.86107 | 34898 ft | 530 kts | 108° |
| 2026-05-09 14:54 | 29.89283 | 58.90234 | 35328 ft | 522 kts | 108° |
| 2026-05-09 14:54 | 29.88558 | 58.94306 | 35808 ft | 518 kts | 104° |
| 2026-05-09 14:54 | 29.88023 | 58.98340 | 36035 ft | 517 kts | 104° |
| 2026-05-09 14:54 | 29.87381 | 59.02298 | 35746 ft | 527 kts | 108° |
| 2026-05-09 14:55 | 29.86521 | 59.06440 | 35546 ft | 536 kts | 110° |
| 2026-05-09 14:55 | 29.85587 | 59.10617 | 35324 ft | 539 kts | 110° |
| 2026-05-09 14:55 | 29.84662 | 59.14790 | 35095 ft | 536 kts | 110° |
| 2026-05-09 14:55 | 29.83780 | 59.18943 | 34988 ft | 531 kts | 109° |
| 2026-05-09 14:56 | 29.83226 | 59.21647 | 34935 ft | 528 kts | 109° |
| 2026-05-09 14:59 | 29.81646 | 59.29655 | 34831 ft | 528 kts | 108° |
| 2026-05-09 14:59 | 29.80032 | 59.37954 | 34865 ft | 534 kts | 107° |
| 2026-05-09 15:00 | 29.78405 | 59.46345 | 35067 ft | 538 kts | 107° |
| 2026-05-09 15:00 | 29.77585 | 59.50541 | 35412 ft | 537 kts | 107° |
| 2026-05-09 15:00 | 29.76761 | 59.54719 | 35743 ft | 535 kts | 108° |
| 2026-05-09 15:01 | 29.75105 | 59.63047 | 36395 ft | 533 kts | 108° |
| 2026-05-09 15:01 | 29.74276 | 59.67205 | 36633 ft | 534 kts | 108° |
| 2026-05-09 15:01 | 29.73444 | 59.71377 | 36808 ft | 535 kts | 108° |
| 2026-05-09 15:02 | 29.72609 | 59.75561 | 36868 ft | 538 kts | 108° |
| 2026-05-09 15:02 | 29.70941 | 59.83932 | 36899 ft | 535 kts | 107° |
| 2026-05-09 15:03 | 29.69282 | 59.92234 | 36939 ft | 531 kts | 107° |
| 2026-05-09 15:03 | 29.67659 | 60.00317 | 36971 ft | 528 kts | 107° |
| 2026-05-09 15:04 | 29.66011 | 60.08491 | 36995 ft | 527 kts | 108° |
| 2026-05-09 15:06 | 29.59533 | 60.40217 | 36996 ft | 535 kts | 108° |
| 2026-05-09 15:06 | 29.57737 | 60.48508 | 37026 ft | 535 kts | 108° |
| 2026-05-09 15:07 | 29.55939 | 60.56791 | 37015 ft | 534 kts | 108° |
| 2026-05-09 15:07 | 29.54153 | 60.65074 | 37016 ft | 533 kts | 108° |
| 2026-05-09 15:08 | 29.52380 | 60.73270 | 36994 ft | 532 kts | 108° |
| 2026-05-09 15:08 | 29.49702 | 60.85594 | 36985 ft | 529 kts | 108° |
| 2026-05-09 15:10 | 29.44332 | 61.18544 | 36919 ft | 526 kts | 103° |
| 2026-05-09 15:11 | 29.43052 | 61.26775 | 36912 ft | 524 kts | 103° |
| 2026-05-09 15:11 | 29.42153 | 61.35091 | 36883 ft | 527 kts | 98° |
| 2026-05-09 15:12 | 29.41490 | 61.43487 | 36860 ft | 529 kts | 97° |
| 2026-05-09 15:12 | 29.40834 | 61.51894 | 36849 ft | 529 kts | 97° |
| 2026-05-09 15:13 | 29.40144 | 61.60301 | 36833 ft | 530 kts | 98° |
| 2026-05-09 15:13 | 29.39430 | 61.68709 | 36822 ft | 530 kts | 97° |
| 2026-05-09 15:14 | 29.38709 | 61.77113 | 36807 ft | 529 kts | 97° |
| 2026-05-09 15:14 | 29.37987 | 61.85498 | 36819 ft | 528 kts | 97° |
| 2026-05-09 15:15 | 29.37263 | 61.93871 | 36789 ft | 527 kts | 97° |
| 2026-05-09 15:15 | 29.36548 | 62.02068 | 36806 ft | 526 kts | 97° |
| 2026-05-09 15:16 | 29.35816 | 62.10411 | 36798 ft | 526 kts | 98° |
| 2026-05-09 15:16 | 29.35084 | 62.18686 | 36785 ft | 525 kts | 97° |
| 2026-05-09 15:17 | 29.34337 | 62.27057 | 36784 ft | 524 kts | 97° |
| 2026-05-09 15:17 | 29.33597 | 62.35312 | 36789 ft | 524 kts | 97° |
| 2026-05-09 15:18 | 29.32846 | 62.43617 | 36777 ft | 524 kts | 97° |
| 2026-05-09 15:18 | 29.32090 | 62.51925 | 36776 ft | 524 kts | 97° |
| 2026-05-09 15:19 | 29.31330 | 62.60221 | 36780 ft | 524 kts | 97° |
| 2026-05-09 15:19 | 29.30565 | 62.68519 | 36780 ft | 523 kts | 97° |
| 2026-05-09 15:20 | 29.29408 | 62.80948 | 36769 ft | 523 kts | 97° |
| 2026-05-09 15:21 | 29.28631 | 62.89225 | 36760 ft | 523 kts | 97° |
| 2026-05-09 15:21 | 29.27849 | 62.97504 | 36767 ft | 523 kts | 97° |
| 2026-05-09 15:22 | 29.27076 | 63.05638 | 36754 ft | 523 kts | 97° |
| 2026-05-09 15:22 | 29.26284 | 63.13918 | 36770 ft | 524 kts | 97° |
| 2026-05-09 15:23 | 29.25480 | 63.22208 | 36769 ft | 523 kts | 98° |
| 2026-05-09 15:23 | 29.24685 | 63.30438 | 36779 ft | 524 kts | 97° |
| 2026-05-09 15:24 | 29.23875 | 63.38777 | 36775 ft | 524 kts | 98° |
| 2026-05-09 15:24 | 29.23066 | 63.47002 | 36782 ft | 523 kts | 98° |
| 2026-05-09 15:25 | 29.22246 | 63.55266 | 36798 ft | 522 kts | 98° |
| 2026-05-09 15:25 | 29.21428 | 63.63521 | 36807 ft | 522 kts | 98° |
| 2026-05-09 15:26 | 29.20186 | 63.75910 | 36796 ft | 522 kts | 98° |
| 2026-05-09 15:26 | 29.19350 | 63.84164 | 36801 ft | 522 kts | 97° |
| 2026-05-09 15:27 | 29.18512 | 63.92416 | 36806 ft | 522 kts | 98° |
| 2026-05-09 15:27 | 29.17684 | 64.00502 | 36797 ft | 521 kts | 98° |
| 2026-05-09 15:28 | 29.16837 | 64.08742 | 36793 ft | 521 kts | 98° |
| 2026-05-09 15:28 | 29.15985 | 64.16975 | 36775 ft | 521 kts | 97° |
| 2026-05-09 15:29 | 29.15129 | 64.25196 | 36791 ft | 520 kts | 97° |
| 2026-05-09 15:29 | 29.14271 | 64.33409 | 36782 ft | 520 kts | 98° |
| 2026-05-09 15:30 | 29.13422 | 64.41614 | 36767 ft | 519 kts | 96° |
| 2026-05-09 15:30 | 29.13060 | 64.49858 | 36768 ft | 519 kts | 92° |
| 2026-05-09 15:31 | 29.12842 | 64.58114 | 36766 ft | 519 kts | 92° |
| 2026-05-09 15:31 | 29.12603 | 64.66366 | 36758 ft | 519 kts | 92° |
| 2026-05-09 15:32 | 29.12332 | 64.74624 | 36763 ft | 519 kts | 92° |
| 2026-05-09 15:32 | 29.12050 | 64.82880 | 36769 ft | 520 kts | 92° |
| 2026-05-09 15:33 | 29.11764 | 64.91141 | 36765 ft | 520 kts | 92° |
| 2026-05-09 15:33 | 29.11475 | 64.99412 | 36770 ft | 520 kts | 92° |
| 2026-05-09 15:34 | 29.11185 | 65.07542 | 36774 ft | 521 kts | 92° |
| 2026-05-09 15:34 | 29.10887 | 65.15812 | 36777 ft | 521 kts | 92° |
| 2026-05-09 15:35 | 29.10586 | 65.24028 | 36773 ft | 520 kts | 92° |
| 2026-05-09 15:35 | 29.10240 | 65.32276 | 36788 ft | 519 kts | 93° |
| 2026-05-09 15:36 | 29.09814 | 65.40522 | 36786 ft | 519 kts | 94° |
| 2026-05-09 15:36 | 29.09382 | 65.48752 | 36778 ft | 519 kts | 94° |
| 2026-05-09 15:37 | 29.08959 | 65.56982 | 36787 ft | 519 kts | 94° |
| 2026-05-09 15:37 | 29.08536 | 65.65217 | 36799 ft | 519 kts | 93° |
| 2026-05-09 15:38 | 29.08109 | 65.73461 | 36789 ft | 519 kts | 93° |
| 2026-05-09 15:38 | 29.07675 | 65.81697 | 36825 ft | 519 kts | 94° |
| 2026-05-09 15:39 | 29.07235 | 65.89943 | 36854 ft | 520 kts | 94° |
| 2026-05-09 15:39 | 29.06791 | 65.98197 | 36854 ft | 520 kts | 93° |
| 2026-05-09 15:40 | 29.06800 | 66.02152 | 36857 ft | 518 kts | 82° |
| 2026-05-09 15:40 | 29.07539 | 66.06156 | 36886 ft | 514 kts | 70° |
| 2026-05-09 15:40 | 29.08895 | 66.09922 | 36868 ft | 511 kts | 59° |
| 2026-05-09 15:40 | 29.10764 | 66.13351 | 36896 ft | 506 kts | 51° |
| 2026-05-09 15:41 | 29.15076 | 66.19719 | 36890 ft | 507 kts | 49° |
| 2026-05-09 15:41 | 29.19354 | 66.26158 | 36922 ft | 510 kts | 51° |
| 2026-05-09 15:42 | 29.23444 | 66.32800 | 36911 ft | 511 kts | 52° |
| 2026-05-09 15:42 | 29.27447 | 66.39530 | 36926 ft | 512 kts | 53° |
| 2026-05-09 15:43 | 29.31437 | 66.46268 | 36947 ft | 510 kts | 52° |
| 2026-05-09 15:43 | 29.35432 | 66.52991 | 36937 ft | 510 kts | 52° |
| 2026-05-09 15:44 | 29.39423 | 66.59701 | 36944 ft | 509 kts | 52° |
| 2026-05-09 15:44 | 29.43414 | 66.66416 | 36945 ft | 509 kts | 52° |
| 2026-05-09 15:45 | 29.47397 | 66.73131 | 36944 ft | 509 kts | 52° |
| 2026-05-09 15:45 | 29.51376 | 66.79853 | 36937 ft | 509 kts | 52° |
| 2026-05-09 15:46 | 29.55324 | 66.86535 | 36935 ft | 508 kts | 52° |
| 2026-05-09 15:46 | 29.59317 | 66.93302 | 36928 ft | 508 kts | 52° |
| 2026-05-09 15:47 | 29.63276 | 67.00022 | 36919 ft | 508 kts | 52° |
| 2026-05-09 15:47 | 29.67141 | 67.06594 | 36903 ft | 507 kts | 52° |
| 2026-05-09 15:48 | 29.71087 | 67.13314 | 36911 ft | 507 kts | 52° |
| 2026-05-09 15:48 | 29.75035 | 67.20049 | 36887 ft | 507 kts | 52° |
| 2026-05-09 15:49 | 29.78984 | 67.26796 | 36888 ft | 509 kts | 52° |
| 2026-05-09 15:49 | 29.82931 | 67.33553 | 36865 ft | 508 kts | 52° |
| 2026-05-09 15:50 | 29.86873 | 67.40311 | 36861 ft | 508 kts | 52° |
| 2026-05-09 15:50 | 29.90809 | 67.47070 | 36838 ft | 508 kts | 52° |
| 2026-05-09 15:51 | 29.94750 | 67.53848 | 36828 ft | 509 kts | 52° |
| 2026-05-09 15:51 | 29.98684 | 67.60628 | 36858 ft | 509 kts | 52° |
| 2026-05-09 15:52 | 30.03918 | 67.69664 | 36863 ft | 509 kts | 52° |
| 2026-05-09 15:53 | 30.07844 | 67.76454 | 36863 ft | 508 kts | 52° |
| 2026-05-09 15:53 | 30.11765 | 67.83248 | 36879 ft | 508 kts | 52° |
| 2026-05-09 15:54 | 30.15679 | 67.90040 | 36916 ft | 508 kts | 52° |
| 2026-05-09 15:54 | 30.19592 | 67.96840 | 36926 ft | 508 kts | 52° |
| 2026-05-09 15:55 | 30.23434 | 68.03533 | 36915 ft | 509 kts | 53° |
| 2026-05-09 15:55 | 30.25127 | 68.07145 | 36905 ft | 515 kts | 64° |
| 2026-05-09 15:55 | 30.26262 | 68.11087 | 36922 ft | 518 kts | 74° |
| 2026-05-09 15:56 | 30.26960 | 68.19390 | 36931 ft | 521 kts | 89° |
| 2026-05-09 15:56 | 30.26802 | 68.27797 | 36912 ft | 523 kts | 90° |
| 2026-05-09 15:57 | 30.26645 | 68.36215 | 36901 ft | 524 kts | 89° |
| 2026-05-09 15:57 | 30.26557 | 68.44657 | 36900 ft | 526 kts | 89° |
| 2026-05-09 15:58 | 30.26496 | 68.53110 | 36891 ft | 526 kts | 89° |
| 2026-05-09 15:58 | 30.26433 | 68.61580 | 36852 ft | 527 kts | 89° |
| 2026-05-09 15:59 | 30.26359 | 68.70047 | 36855 ft | 526 kts | 89° |
| 2026-05-09 15:59 | 30.26277 | 68.78496 | 36869 ft | 525 kts | 89° |
| 2026-05-09 16:00 | 30.26191 | 68.86943 | 36844 ft | 525 kts | 89° |
| 2026-05-09 16:00 | 30.26099 | 68.95364 | 36844 ft | 523 kts | 89° |
| 2026-05-09 16:01 | 30.26003 | 69.03615 | 36843 ft | 521 kts | 89° |
| 2026-05-09 16:01 | 30.25901 | 69.11994 | 36848 ft | 521 kts | 89° |
| 2026-05-09 16:02 | 30.25794 | 69.20363 | 36859 ft | 520 kts | 88° |
| 2026-05-09 16:02 | 30.25624 | 69.32920 | 36855 ft | 521 kts | 89° |
| 2026-05-09 16:03 | 30.25503 | 69.41294 | 36870 ft | 521 kts | 88° |
| 2026-05-09 16:03 | 30.25379 | 69.49669 | 36871 ft | 521 kts | 89° |
| 2026-05-09 16:04 | 30.25247 | 69.58055 | 36896 ft | 522 kts | 88° |
| 2026-05-09 16:04 | 30.25113 | 69.66468 | 36892 ft | 524 kts | 88° |
| 2026-05-09 16:05 | 30.24966 | 69.74906 | 36890 ft | 525 kts | 89° |
| 2026-05-09 16:05 | 30.24702 | 69.83354 | 36894 ft | 526 kts | 90° |
| 2026-05-09 16:06 | 30.24387 | 69.91813 | 36901 ft | 526 kts | 89° |
| 2026-05-09 16:06 | 30.24087 | 70.00160 | 36867 ft | 526 kts | 89° |
| 2026-05-09 16:07 | 30.23795 | 70.08554 | 36843 ft | 526 kts | 89° |
| 2026-05-09 16:07 | 30.23498 | 70.16993 | 36836 ft | 524 kts | 89° |
| 2026-05-09 16:08 | 30.23195 | 70.25409 | 36821 ft | 524 kts | 89° |
| 2026-05-09 16:08 | 30.22886 | 70.33817 | 36793 ft | 523 kts | 89° |
| 2026-05-09 16:09 | 30.22572 | 70.42219 | 36781 ft | 523 kts | 89° |
| 2026-05-09 16:09 | 30.22255 | 70.50618 | 36760 ft | 523 kts | 89° |
| 2026-05-09 16:10 | 30.21903 | 70.59018 | 36767 ft | 523 kts | 89° |
| 2026-05-09 16:10 | 30.21514 | 70.67416 | 36750 ft | 523 kts | 89° |
| 2026-05-09 16:11 | 30.21127 | 70.75764 | 36751 ft | 523 kts | 89° |
| 2026-05-09 16:11 | 30.20740 | 70.84157 | 36749 ft | 523 kts | 89° |
| 2026-05-09 16:12 | 30.20350 | 70.92554 | 36756 ft | 523 kts | 89° |
| 2026-05-09 16:12 | 30.19962 | 71.00786 | 36752 ft | 523 kts | 88° |
| 2026-05-09 16:13 | 30.19790 | 71.09176 | 36759 ft | 522 kts | 86° |
| 2026-05-09 16:13 | 30.19739 | 71.17560 | 36757 ft | 522 kts | 86° |
| 2026-05-09 16:14 | 30.19642 | 71.25948 | 36748 ft | 522 kts | 86° |
| 2026-05-09 16:14 | 30.19512 | 71.34341 | 36749 ft | 522 kts | 86° |
| 2026-05-09 16:15 | 30.19383 | 71.42731 | 36746 ft | 522 kts | 86° |
| 2026-05-09 16:15 | 30.19514 | 71.51100 | 36750 ft | 520 kts | 83° |
| 2026-05-09 16:16 | 30.19764 | 71.59456 | 36749 ft | 520 kts | 83° |
| 2026-05-09 16:16 | 30.19959 | 71.67811 | 36754 ft | 520 kts | 84° |
| 2026-05-09 16:17 | 30.20121 | 71.76168 | 36756 ft | 520 kts | 84° |
| 2026-05-09 16:17 | 30.20245 | 71.84514 | 36763 ft | 520 kts | 85° |
| 2026-05-09 16:18 | 30.20231 | 71.92871 | 36776 ft | 520 kts | 85° |
| 2026-05-09 16:18 | 30.20198 | 72.01065 | 36765 ft | 519 kts | 85° |
| 2026-05-09 16:19 | 30.20182 | 72.09409 | 36767 ft | 519 kts | 85° |
| 2026-05-09 16:19 | 30.20171 | 72.17747 | 36770 ft | 519 kts | 85° |
| 2026-05-09 16:20 | 30.20154 | 72.26082 | 36780 ft | 518 kts | 85° |
| 2026-05-09 16:20 | 30.20131 | 72.34414 | 36770 ft | 519 kts | 85° |
| 2026-05-09 16:21 | 30.20104 | 72.42752 | 36764 ft | 519 kts | 85° |
| 2026-05-09 16:21 | 30.20087 | 72.51083 | 36765 ft | 518 kts | 84° |
| 2026-05-09 16:22 | 30.20089 | 72.59387 | 36704 ft | 512 kts | 84° |
| 2026-05-09 16:22 | 30.20087 | 72.63472 | 36497 ft | 506 kts | 84° |
| 2026-05-09 16:22 | 30.20085 | 72.67527 | 36192 ft | 502 kts | 84° |
| 2026-05-09 16:23 | 30.20082 | 72.71550 | 35838 ft | 500 kts | 84° |
| 2026-05-09 16:23 | 30.20078 | 72.75562 | 35500 ft | 497 kts | 84° |
| 2026-05-09 16:23 | 30.20072 | 72.79543 | 35183 ft | 494 kts | 84° |
| 2026-05-09 16:23 | 30.20081 | 72.83491 | 34872 ft | 486 kts | 81° |
| 2026-05-09 16:24 | 30.20642 | 72.87243 | 34389 ft | 462 kts | 64° |
| 2026-05-09 16:24 | 30.21946 | 72.90534 | 33723 ft | 442 kts | 49° |
| 2026-05-09 16:24 | 30.23845 | 72.93220 | 32858 ft | 426 kts | 39° |
| 2026-05-09 16:24 | 30.25878 | 72.95707 | 32129 ft | 423 kts | 41° |
| 2026-05-09 16:25 | 30.27844 | 72.98208 | 31455 ft | 417 kts | 42° |
| 2026-05-09 16:25 | 30.29120 | 72.99859 | 31015 ft | 414 kts | 42° |
| 2026-05-09 16:25 | 30.31585 | 73.03074 | 30142 ft | 408 kts | 43° |
| 2026-05-09 16:25 | 30.33457 | 73.05521 | 29407 ft | 404 kts | 43° |
| 2026-05-09 16:26 | 30.35283 | 73.07908 | 28666 ft | 400 kts | 43° |
| 2026-05-09 16:26 | 30.37114 | 73.10301 | 27944 ft | 395 kts | 44° |
| 2026-05-09 16:26 | 30.38930 | 73.12673 | 27242 ft | 391 kts | 44° |
| 2026-05-09 16:26 | 30.40724 | 73.15017 | 26549 ft | 387 kts | 44° |
| 2026-05-09 16:27 | 30.42502 | 73.17340 | 25891 ft | 384 kts | 45° |
| 2026-05-09 16:27 | 30.44264 | 73.19643 | 25232 ft | 380 kts | 45° |
| 2026-05-09 16:27 | 30.46011 | 73.21929 | 24598 ft | 377 kts | 45° |
| 2026-05-09 16:27 | 30.47742 | 73.24194 | 23991 ft | 374 kts | 46° |
| 2026-05-09 16:28 | 30.49459 | 73.26443 | 23401 ft | 371 kts | 46° |
| 2026-05-09 16:28 | 30.51161 | 73.28673 | 22710 ft | 367 kts | 46° |
| 2026-05-09 16:28 | 30.52844 | 73.30881 | 22073 ft | 363 kts | 46° |
| 2026-05-09 16:28 | 30.54506 | 73.33062 | 21485 ft | 358 kts | 46° |
| 2026-05-09 16:29 | 30.56145 | 73.35215 | 20882 ft | 355 kts | 46° |
| 2026-05-09 16:29 | 30.57771 | 73.37351 | 20250 ft | 352 kts | 46° |
| 2026-05-09 16:29 | 30.59385 | 73.39472 | 19645 ft | 349 kts | 46° |
| 2026-05-09 16:29 | 30.60988 | 73.41580 | 19063 ft | 347 kts | 46° |
| 2026-05-09 16:30 | 30.62576 | 73.43670 | 18503 ft | 344 kts | 46° |
| 2026-05-09 16:30 | 30.64152 | 73.45744 | 17924 ft | 341 kts | 46° |
| 2026-05-09 16:30 | 30.65715 | 73.47803 | 17316 ft | 339 kts | 46° |
| 2026-05-09 16:30 | 30.67267 | 73.49848 | 16704 ft | 336 kts | 46° |
| 2026-05-09 16:31 | 30.68805 | 73.51876 | 16122 ft | 334 kts | 46° |
| 2026-05-09 16:31 | 30.70333 | 73.53892 | 15555 ft | 331 kts | 46° |
| 2026-05-09 16:31 | 30.71849 | 73.55893 | 14995 ft | 329 kts | 46° |
| 2026-05-09 16:31 | 30.73357 | 73.57884 | 14461 ft | 327 kts | 46° |
| 2026-05-09 16:32 | 30.74856 | 73.59864 | 13931 ft | 325 kts | 46° |
| 2026-05-09 16:32 | 30.75866 | 73.61198 | 13553 ft | 325 kts | 46° |
| 2026-05-09 16:32 | 30.77837 | 73.63804 | 12997 ft | 325 kts | 46° |
| 2026-05-09 16:32 | 30.79330 | 73.65778 | 12846 ft | 324 kts | 46° |
| 2026-05-09 16:33 | 30.80813 | 73.67741 | 12817 ft | 324 kts | 46° |
| 2026-05-09 16:33 | 30.82303 | 73.69714 | 12808 ft | 324 kts | 46° |
| 2026-05-09 16:33 | 30.83783 | 73.71677 | 12783 ft | 322 kts | 46° |
| 2026-05-09 16:33 | 30.85255 | 73.73630 | 12802 ft | 320 kts | 46° |
| 2026-05-09 16:34 | 30.86226 | 73.74919 | 12751 ft | 319 kts | 46° |
| 2026-05-09 16:34 | 30.88171 | 73.77503 | 12410 ft | 317 kts | 46° |
| 2026-05-09 16:34 | 30.89133 | 73.78781 | 12188 ft | 317 kts | 46° |
| 2026-05-09 16:34 | 30.91080 | 73.81368 | 11698 ft | 318 kts | 46° |
| 2026-05-09 16:35 | 30.92044 | 73.82649 | 11480 ft | 317 kts | 46° |
| 2026-05-09 16:35 | 30.93495 | 73.84579 | 11186 ft | 316 kts | 46° |
| 2026-05-09 16:35 | 30.94935 | 73.86495 | 10902 ft | 314 kts | 46° |
| 2026-05-09 16:35 | 30.96373 | 73.88410 | 10598 ft | 313 kts | 46° |
| 2026-05-09 16:36 | 30.97804 | 73.90316 | 10300 ft | 312 kts | 46° |
| 2026-05-09 16:36 | 31.02051 | 73.95979 | 9551 ft | 298 kts | 46° |
| 2026-05-09 16:37 | 31.03381 | 73.97758 | 9228 ft | 285 kts | 46° |
| 2026-05-09 16:37 | 31.04667 | 73.99475 | 8762 ft | 279 kts | 46° |
| 2026-05-09 16:37 | 31.05890 | 74.01107 | 8266 ft | 276 kts | 46° |
| 2026-05-09 16:37 | 31.07148 | 74.02788 | 7742 ft | 274 kts | 47° |
| 2026-05-09 16:38 | 31.08403 | 74.04462 | 7190 ft | 274 kts | 47° |
| 2026-05-09 16:38 | 31.09657 | 74.06136 | 6653 ft | 273 kts | 47° |
| 2026-05-09 16:38 | 31.10902 | 74.07801 | 6149 ft | 272 kts | 48° |
| 2026-05-09 16:38 | 31.12143 | 74.09461 | 5640 ft | 270 kts | 48° |
| 2026-05-09 16:39 | 31.13374 | 74.11109 | 5132 ft | 268 kts | 48° |
| 2026-05-09 16:39 | 31.14595 | 74.12746 | 4653 ft | 266 kts | 48° |
| 2026-05-09 16:39 | 31.15815 | 74.14356 | 4194 ft | 262 kts | 43° |
| 2026-05-09 16:39 | 31.17366 | 74.15445 | 4029 ft | 264 kts | 14° |
| 2026-05-09 16:40 | 31.19159 | 74.15880 | 4012 ft | 263 kts | 10° |
| 2026-05-09 16:40 | 31.20954 | 74.16277 | 3987 ft | 261 kts | 10° |
| 2026-05-09 16:42 | 31.33472 | 74.19058 | 3990 ft | 266 kts | 10° |
| 2026-05-09 16:42 | 31.35301 | 74.19474 | 3984 ft | 266 kts | 10° |
| 2026-05-09 16:42 | 31.37078 | 74.19878 | 4022 ft | 260 kts | 10° |
| 2026-05-09 16:42 | 31.38859 | 74.20281 | 3995 ft | 253 kts | 10° |
| 2026-05-09 16:43 | 31.40553 | 74.20666 | 3980 ft | 242 kts | 10° |
| 2026-05-09 16:43 | 31.42199 | 74.21038 | 3979 ft | 245 kts | 10° |
| 2026-05-09 16:43 | 31.43903 | 74.21424 | 3966 ft | 258 kts | 10° |
| 2026-05-09 16:43 | 31.45709 | 74.21832 | 3988 ft | 262 kts | 10° |
| 2026-05-09 16:44 | 31.47499 | 74.22237 | 3993 ft | 262 kts | 10° |
| 2026-05-09 16:44 | 31.49286 | 74.22643 | 3989 ft | 261 kts | 10° |
| 2026-05-09 16:44 | 31.51066 | 74.23046 | 3992 ft | 260 kts | 10° |
| 2026-05-09 16:44 | 31.52842 | 74.23449 | 3992 ft | 260 kts | 10° |
| 2026-05-09 16:45 | 31.54616 | 74.23851 | 3992 ft | 260 kts | 10° |
| 2026-05-09 16:45 | 31.56389 | 74.24253 | 3995 ft | 260 kts | 10° |
| 2026-05-09 16:45 | 31.58139 | 74.24650 | 3992 ft | 260 kts | 10° |
| 2026-05-09 16:45 | 31.59914 | 74.25053 | 3992 ft | 260 kts | 10° |
| 2026-05-09 16:46 | 31.61690 | 74.25457 | 3996 ft | 260 kts | 10° |
| 2026-05-09 16:46 | 31.63469 | 74.25868 | 3995 ft | 260 kts | 12° |
| 2026-05-09 16:46 | 31.65146 | 74.26621 | 3995 ft | 259 kts | 26° |
| 2026-05-09 16:46 | 31.66742 | 74.27620 | 4001 ft | 261 kts | 27° |
| 2026-05-09 16:47 | 31.68351 | 74.28636 | 4006 ft | 264 kts | 27° |
| 2026-05-09 16:47 | 31.69977 | 74.29645 | 3999 ft | 264 kts | 29° |
| 2026-05-09 16:47 | 31.71335 | 74.31037 | 3985 ft | 259 kts | 57° |
| 2026-05-09 16:47 | 31.71933 | 74.33004 | 3918 ft | 259 kts | 85° |
| 2026-05-09 16:48 | 31.71754 | 74.35086 | 3760 ft | 253 kts | 108° |
| 2026-05-09 16:48 | 31.71143 | 74.36980 | 3583 ft | 245 kts | 111° |
| 2026-05-09 16:48 | 31.70509 | 74.38798 | 3390 ft | 235 kts | 118° |
| 2026-05-09 16:48 | 31.69448 | 74.40155 | 3213 ft | 221 kts | 152° |
| 2026-05-09 16:49 | 31.68045 | 74.40713 | 3076 ft | 209 kts | 174° |
| 2026-05-09 16:49 | 31.66604 | 74.40771 | 3012 ft | 206 kts | 181° |
| 2026-05-09 16:49 | 31.65208 | 74.40739 | 2863 ft | 194 kts | 182° |
| 2026-05-09 16:50 | 31.62636 | 74.40653 | 2604 ft | 184 kts | 182° |
| 2026-05-09 16:50 | 31.61355 | 74.40605 | 2513 ft | 185 kts | 182° |
| 2026-05-09 16:50 | 31.60064 | 74.40556 | 2300 ft | 189 kts | 181° |
| 2026-05-09 16:50 | 31.58765 | 74.40536 | 1881 ft | 181 kts | 180° |
| 2026-05-09 16:51 | 31.57558 | 74.40524 | 1510 ft | 164 kts | 179° |
| 2026-05-09 16:51 | 31.56482 | 74.40546 | 1254 ft | 149 kts | 179° |
| 2026-05-09 16:51 | 31.55459 | 74.40520 | 1132 ft | 147 kts | 181° |
| 2026-05-09 16:51 | 31.54414 | 74.40502 | 957 ft | 155 kts | 181° |
| 2026-05-09 16:52 | 31.53349 | 74.40472 | 750 ft | 149 kts | 179° |
| 2026-05-09 16:52 | 31.52392 | 74.40471 | 729 ft | 124 kts | 183° |
| 2026-05-09 16:52 | 31.51891 | 74.40448 | 729 ft | 35 kts | 183° |
| 2026-05-09 16:52 | 31.51651 | 74.40439 | 730 ft | 19 kts | 179° |
| 2026-05-09 16:53 | 31.51531 | 74.40492 | 730 ft | 19 kts | 122° |
| 2026-05-09 16:53 | 31.51532 | 74.40616 | 730 ft | 16 kts | 52° |
| 2026-05-09 16:53 | 31.51632 | 74.40659 | 729 ft | 16 kts | 5° |
| 2026-05-09 16:53 | 31.51705 | 74.40733 | 729 ft | 16 kts | 77° |
| 2026-05-09 16:54 | 31.51761 | 74.40832 | 728 ft | 16 kts | 13° |
| 2026-05-09 16:54 | 31.51865 | 74.40843 | 729 ft | 8 kts | 7° |
| 2026-05-09 16:54 | 31.51918 | 74.40851 | 729 ft | 8 kts | 7° |
| 2026-05-09 16:54 | 31.51968 | 74.40869 | 730 ft | 8 kts | 44° |
| 2026-05-09 16:55 | 31.51979 | 74.40912 | 729 ft | 0 kts | 87° |
| 2026-05-09 16:55 | 31.51979 | 74.40916 | 731 ft | 1 kts | 86° |
| 2026-05-09 16:55 | 31.51980 | 74.40928 | 729 ft | 0 kts | 88° |